Time;durP1;ratioP1;P1;durP2;ratioP2;P2;SDS_P1;SDS_P2;PMS_P1;PMS_P2;Temp;Humidity;BMP_temperature;BMP_pressure;BME280_temperature;BME280_humidity;BME280_pressure;Samples;Min_cycle;Max_cycle;Signal;HPM_P1;HPM_P2
2021/06/12 00:00:52;;;;;;;1.50;0.90;;;22.90;86.70;;;;;;5094300;28;20111;-81
2021/06/12 00:03:18;;;;;;;0.95;0.70;;;22.90;86.70;;;;;;5094599;28;20035;-81
2021/06/12 00:05:43;;;;;;;1.58;0.60;;;22.90;86.70;;;;;;5095407;28;20495;-81
2021/06/12 00:08:10;;;;;;;1.38;0.63;;;22.90;86.70;;;;;;5109624;28;20508;-83
2021/06/12 00:10:37;;;;;;;1.55;0.80;;;22.90;86.70;;;;;;5102478;28;20454;-82
2021/06/12 00:13:04;;;;;;;1.38;0.88;;;22.90;86.70;;;;;;5094349;28;20034;-81
2021/06/12 00:15:31;;;;;;;2.42;1.00;;;22.90;86.60;;;;;;5107225;28;20039;-80
2021/06/12 00:17:57;;;;;;;2.22;1.00;;;22.90;86.70;;;;;;5112602;28;20100;-81
2021/06/12 00:20:26;;;;;;;1.52;0.70;;;22.80;86.60;;;;;;5094367;28;20480;-82
2021/06/12 00:22:52;;;;;;;1.20;0.65;;;22.80;86.50;;;;;;5103806;28;20073;-81
2021/06/12 00:25:22;;;;;;;1.67;0.77;;;22.80;86.50;;;;;;5114506;28;20028;-82
2021/06/12 00:27:48;;;;;;;1.40;0.80;;;22.80;86.40;;;;;;5112610;28;20061;-79
2021/06/12 00:30:14;;;;;;;1.50;0.70;;;22.80;86.30;;;;;;5073829;28;20068;-80
2021/06/12 00:32:40;;;;;;;1.42;0.70;;;22.80;86.40;;;;;;5073618;28;20033;-82
2021/06/12 00:35:08;;;;;;;2.10;1.08;;;22.80;86.40;;;;;;5091737;28;20394;-81
2021/06/12 00:37:33;;;;;;;1.63;0.90;;;22.80;86.40;;;;;;5093501;28;20487;-80
2021/06/12 00:39:59;;;;;;;1.45;0.80;;;22.80;86.40;;;;;;5099329;28;20028;-82
2021/06/12 00:42:25;;;;;;;1.60;0.68;;;22.80;86.60;;;;;;5112468;28;20036;-82
2021/06/12 00:44:51;;;;;;;1.15;0.70;;;22.80;86.60;;;;;;5113967;28;20031;-81
2021/06/12 00:47:16;;;;;;;1.42;0.90;;;22.80;87.00;;;;;;5114175;28;20061;-82
2021/06/12 00:49:42;;;;;;;2.03;0.80;;;22.80;88.20;;;;;;5110744;28;20032;-82
2021/06/12 00:52:08;;;;;;;0.90;0.60;;;22.80;88.50;;;;;;5093436;28;20115;-81
2021/06/12 00:54:36;;;;;;;1.50;0.90;;;22.80;88.60;;;;;;5093780;28;20020;-79
2021/06/12 00:57:03;;;;;;;1.83;1.00;;;22.80;88.60;;;;;;5093521;28;20484;-79
2021/06/12 00:59:30;;;;;;;1.55;0.90;;;22.80;88.50;;;;;;5093727;28;20024;-82
2021/06/12 01:01:56;;;;;;;2.17;0.80;;;22.80;88.80;;;;;;5094745;28;20118;-81
2021/06/12 01:04:21;;;;;;;1.65;0.80;;;22.80;88.60;;;;;;5099331;28;20554;-82
2021/06/12 01:06:50;;;;;;;1.90;0.82;;;22.80;88.70;;;;;;5105289;28;20038;-81
2021/06/12 01:09:17;;;;;;;1.23;0.80;;;22.80;88.60;;;;;;5105134;28;20023;-83
2021/06/12 01:12:20;;;;;;;1.52;0.95;;;22.80;88.50;;;;;;5111475;28;20040;-83
2021/06/12 01:14:52;;;;;;;2.83;0.80;;;22.80;88.50;;;;;;5109377;28;20032;-82
2021/06/12 01:17:21;;;;;;;1.60;1.00;;;22.80;88.40;;;;;;5099667;28;20028;-82
2021/06/12 01:20:05;;;;;;;1.38;0.90;;;22.80;88.60;;;;;;5092799;28;20057;-82
2021/06/12 01:23:11;;;;;;;1.27;0.85;;;22.70;88.30;;;;;;5074138;28;20025;-78
2021/06/12 01:25:45;;;;;;;1.55;1.00;;;22.70;88.30;;;;;;5091614;28;20042;-81
2021/06/12 01:28:34;;;;;;;1.33;0.70;;;22.70;88.20;;;;;;5112500;28;20027;-83
2021/06/12 01:31:01;;;;;;;1.38;1.10;;;22.70;88.10;;;;;;5094808;28;20047;-82
2021/06/12 01:33:27;;;;;;;2.00;1.08;;;22.70;88.00;;;;;;5109922;28;20403;-81
2021/06/12 01:35:58;;;;;;;1.65;0.93;;;22.70;88.20;;;;;;5092594;28;20023;-82
2021/06/12 01:38:27;;;;;;;1.13;0.77;;;22.70;88.10;;;;;;5101021;28;20038;-80
2021/06/12 01:40:56;;;;;;;1.48;1.05;;;22.70;88.10;;;;;;5101524;28;20032;-81
2021/06/12 01:43:23;;;;;;;1.15;0.93;;;22.70;88.10;;;;;;5092766;28;20042;-81
2021/06/12 01:45:50;;;;;;;3.70;0.90;;;22.70;88.00;;;;;;5092418;28;20065;-82
2021/06/12 01:48:16;;;;;;;1.25;0.75;;;22.70;88.10;;;;;;5093281;28;20034;-79
2021/06/12 01:50:43;;;;;;;2.53;1.17;;;22.70;88.10;;;;;;5091093;28;20028;-80
2021/06/12 01:53:10;;;;;;;1.85;1.27;;;22.70;88.00;;;;;;5092461;28;20058;-80
2021/06/12 01:55:37;;;;;;;2.15;1.30;;;22.70;88.00;;;;;;5103304;28;20486;-80
2021/06/12 01:58:07;;;;;;;1.50;1.10;;;22.60;87.80;;;;;;5112316;28;20410;-80
2021/06/12 02:00:33;;;;;;;1.60;1.15;;;22.60;87.70;;;;;;5092417;28;20024;-79
2021/06/12 02:03:00;;;;;;;2.20;1.23;;;22.60;87.70;;;;;;5109334;28;20547;-80
2021/06/12 02:05:27;;;;;;;3.30;1.40;;;22.60;87.60;;;;;;5092608;28;20020;-80
2021/06/12 02:07:54;;;;;;;1.75;1.08;;;22.60;87.50;;;;;;5092089;28;20043;-81
2021/06/12 02:10:24;;;;;;;1.45;1.00;;;22.60;87.50;;;;;;5104238;28;20030;-80
2021/06/12 02:12:51;;;;;;;2.45;1.17;;;22.60;87.50;;;;;;5098767;28;20403;-80
2021/06/12 02:15:18;;;;;;;1.90;1.20;;;22.60;87.40;;;;;;5092089;28;20024;-79
2021/06/12 02:17:44;;;;;;;1.40;1.00;;;22.60;87.20;;;;;;5103754;28;20117;-79
2021/06/12 02:20:13;;;;;;;1.98;1.33;;;22.60;87.20;;;;;;5110141;28;20047;-80
2021/06/12 02:22:49;;;;;;;2.17;1.10;;;22.60;87.20;;;;;;5111008;28;20037;-79
2021/06/12 02:25:16;;;;;;;2.53;1.42;;;22.60;87.10;;;;;;5071834;28;20024;-80
2021/06/12 02:27:47;;;;;;;2.47;1.40;;;22.60;87.20;;;;;;5071411;28;20105;-80
2021/06/12 02:30:13;;;;;;;1.80;1.27;;;22.60;87.30;;;;;;5081021;28;20032;-80
2021/06/12 02:32:41;;;;;;;2.92;1.63;;;22.60;87.00;;;;;;5091559;28;20066;-79
2021/06/12 02:35:08;;;;;;;2.05;1.27;;;22.60;86.90;;;;;;5108486;28;20102;-78
2021/06/12 02:37:36;;;;;;;1.90;1.40;;;22.60;86.90;;;;;;5105932;28;20031;-78
2021/06/12 02:40:02;;;;;;;2.55;1.02;;;22.60;86.90;;;;;;5091755;28;20472;-77
2021/06/12 02:42:27;;;;;;;1.75;1.00;;;22.50;86.80;;;;;;5091402;28;20557;-77
2021/06/12 02:44:53;;;;;;;1.83;1.00;;;22.60;86.90;;;;;;5091336;28;20016;-79
2021/06/12 02:47:21;;;;;;;3.95;1.70;;;22.50;86.80;;;;;;5100200;28;20034;-78
2021/06/12 02:49:49;;;;;;;2.30;1.10;;;22.50;86.80;;;;;;5095631;28;20024;-78
2021/06/12 02:52:22;;;;;;;2.67;1.55;;;22.50;86.80;;;;;;5097187;28;20110;-77
2021/06/12 02:54:49;;;;;;;2.63;1.55;;;22.50;86.70;;;;;;5091177;28;20055;-78
2021/06/12 02:57:16;;;;;;;2.38;1.27;;;22.50;86.80;;;;;;5091250;28;20115;-78
2021/06/12 02:59:46;;;;;;;2.25;1.52;;;22.50;86.80;;;;;;5099088;28;20020;-79
2021/06/12 03:02:14;;;;;;;2.58;1.25;;;22.50;86.70;;;;;;5111448;28;20019;-78
2021/06/12 03:04:44;;;;;;;1.90;1.30;;;22.50;86.80;;;;;;5098446;28;20028;-78
2021/06/12 03:07:14;;;;;;;2.53;1.15;;;22.40;86.60;;;;;;5099802;28;20050;-78
2021/06/12 03:09:43;;;;;;;2.13;1.40;;;22.40;86.60;;;;;;5111300;28;20019;-78
2021/06/12 03:12:10;;;;;;;2.10;1.30;;;22.50;86.70;;;;;;5107987;28;20063;-77
2021/06/12 03:14:39;;;;;;;1.65;1.33;;;22.40;86.50;;;;;;5095346;28;20430;-78
2021/06/12 03:17:06;;;;;;;2.33;1.70;;;22.40;86.40;;;;;;5108352;28;20035;-79
2021/06/12 03:19:32;;;;;;;2.05;1.55;;;22.40;86.40;;;;;;5102675;28;20103;-76
2021/06/12 03:22:00;;;;;;;2.15;1.45;;;22.40;86.40;;;;;;5091455;28;20142;-78
2021/06/12 03:24:28;;;;;;;1.77;1.38;;;22.40;86.40;;;;;;5091175;28;20476;-76
2021/06/12 03:26:59;;;;;;;2.45;1.50;;;22.40;86.30;;;;;;5096714;28;20030;-77
2021/06/12 03:29:26;;;;;;;2.67;1.52;;;22.40;86.30;;;;;;5096870;28;20047;-78
2021/06/12 03:31:52;;;;;;;3.15;1.20;;;22.40;86.20;;;;;;5070602;28;20043;-79
2021/06/12 03:34:20;;;;;;;1.95;1.10;;;22.40;86.20;;;;;;5092734;28;20099;-79
2021/06/12 03:36:46;;;;;;;2.05;1.70;;;22.40;86.20;;;;;;5110624;28;20024;-78
2021/06/12 03:39:12;;;;;;;1.80;1.30;;;22.40;86.20;;;;;;5095155;28;20052;-79
2021/06/12 03:41:38;;;;;;;2.97;1.70;;;22.40;86.20;;;;;;5095059;28;20060;-79
2021/06/12 03:44:04;;;;;;;2.38;1.40;;;22.40;86.20;;;;;;5096413;28;20062;-80
2021/06/12 03:46:30;;;;;;;3.22;1.70;;;22.40;86.20;;;;;;5098377;28;20040;-78
2021/06/12 03:48:56;;;;;;;3.60;1.65;;;22.30;86.10;;;;;;5095154;28;20027;-77
2021/06/12 03:51:24;;;;;;;2.40;1.38;;;22.40;86.10;;;;;;5095459;28;20028;-75
2021/06/12 03:53:52;;;;;;;2.42;1.30;;;22.30;86.70;;;;;;5103656;28;20118;-78
2021/06/12 03:56:22;;;;;;;1.70;1.17;;;22.40;86.00;;;;;;5108683;28;20028;-78
2021/06/12 03:58:49;;;;;;;3.33;1.70;;;22.30;85.90;;;;;;5114857;28;20483;-76
2021/06/12 04:01:17;;;;;;;2.22;1.50;;;22.30;86.00;;;;;;5113072;28;20123;-79
2021/06/12 04:03:43;;;;;;;2.08;1.20;;;22.30;85.90;;;;;;5114176;28;20496;-80
2021/06/12 04:06:10;;;;;;;1.27;1.00;;;22.30;85.90;;;;;;5114962;28;20464;-80
2021/06/12 04:08:37;;;;;;;2.95;1.67;;;22.30;86.00;;;;;;5094578;28;20028;-80
2021/06/12 04:11:04;;;;;;;2.40;1.40;;;22.30;85.90;;;;;;5114659;28;20487;-80
2021/06/12 04:13:29;;;;;;;1.77;1.15;;;22.30;85.90;;;;;;5095857;28;20119;-80
2021/06/12 04:15:55;;;;;;;2.95;1.38;;;22.30;85.90;;;;;;5094182;28;20101;-79
2021/06/12 04:18:21;;;;;;;2.35;1.58;;;22.30;85.90;;;;;;5098614;28;20189;-79
2021/06/12 04:20:46;;;;;;;2.20;1.58;;;22.30;85.90;;;;;;5113009;28;20015;-80
2021/06/12 04:23:12;;;;;;;1.55;1.30;;;22.30;85.90;;;;;;5114688;28;20539;-80
2021/06/12 04:25:38;;;;;;;1.95;1.20;;;22.30;85.80;;;;;;5104899;28;20028;-81
2021/06/12 04:28:05;;;;;;;3.45;1.80;;;22.30;85.90;;;;;;5099197;28;20063;-80
2021/06/12 04:30:31;;;;;;;3.47;1.85;;;22.20;85.80;;;;;;5103183;28;20117;-78
2021/06/12 04:32:57;;;;;;;1.98;1.52;;;22.30;85.90;;;;;;5094311;28;20036;-80
2021/06/12 04:35:24;;;;;;;2.90;1.60;;;22.20;85.90;;;;;;5107319;28;20016;-80
2021/06/12 04:37:50;;;;;;;1.60;1.50;;;22.20;85.80;;;;;;5106547;28;20032;-80
2021/06/12 04:40:16;;;;;;;1.90;1.52;;;22.20;85.80;;;;;;5110765;28;20091;-79
2021/06/12 04:42:42;;;;;;;2.35;1.42;;;22.20;85.80;;;;;;5092419;28;20553;-80
2021/06/12 04:45:09;;;;;;;2.70;1.75;;;22.20;85.90;;;;;;5093379;28;20020;-80
2021/06/12 04:47:35;;;;;;;1.83;1.45;;;22.20;85.70;;;;;;5103147;28;20403;-79
2021/06/12 04:50:00;;;;;;;2.33;1.58;;;22.20;85.70;;;;;;5114300;28;20072;-77
2021/06/12 04:52:26;;;;;;;1.85;1.15;;;22.20;85.60;;;;;;5104011;28;20040;-80
2021/06/12 04:54:52;;;;;;;2.53;1.63;;;22.20;85.60;;;;;;5095178;28;20078;-80
2021/06/12 04:57:19;;;;;;;1.90;1.30;;;22.20;85.60;;;;;;5099448;28;20495;-75
2021/06/12 04:59:44;;;;;;;4.90;1.77;;;22.20;85.60;;;;;;5108837;28;20023;-77
2021/06/12 05:02:10;;;;;;;2.42;1.38;;;22.20;85.60;;;;;;5111244;28;20025;-79
2021/06/12 05:04:36;;;;;;;1.77;1.35;;;22.20;85.60;;;;;;5096859;28;20537;-77
2021/06/12 05:07:01;;;;;;;1.80;1.48;;;22.20;85.60;;;;;;5093501;28;20035;-76
2021/06/12 05:09:27;;;;;;;2.45;1.50;;;22.20;85.50;;;;;;5081923;28;20027;-78
2021/06/12 05:11:53;;;;;;;2.33;1.60;;;22.20;85.40;;;;;;5092900;28;20097;-79
2021/06/12 05:14:19;;;;;;;2.50;1.98;;;22.20;85.50;;;;;;5093431;28;20103;-79
2021/06/12 05:16:45;;;;;;;1.80;1.20;;;22.20;85.50;;;;;;5092600;28;20039;-78
2021/06/12 05:19:11;;;;;;;2.05;1.70;;;22.20;85.40;;;;;;5094497;28;20020;-78
2021/06/12 05:21:37;;;;;;;2.03;1.30;;;22.20;85.30;;;;;;5098701;28;20038;-79
2021/06/12 05:24:04;;;;;;;2.58;1.58;;;22.20;85.30;;;;;;5113527;28;20032;-79
2021/06/12 05:26:30;;;;;;;1.40;1.10;;;22.20;85.30;;;;;;5097381;28;20059;-78
2021/06/12 05:28:55;;;;;;;2.50;1.48;;;22.20;85.30;;;;;;5100213;28;20052;-78
2021/06/12 05:31:21;;;;;;;2.33;1.60;;;22.20;85.30;;;;;;5101588;28;20031;-78
2021/06/12 05:33:47;;;;;;;2.80;1.55;;;22.20;85.30;;;;;;5106900;28;20558;-78
2021/06/12 05:36:13;;;;;;;2.08;1.40;;;22.20;85.30;;;;;;5113001;28;20031;-78
2021/06/12 05:38:39;;;;;;;2.28;1.50;;;22.20;85.30;;;;;;5111460;28;20028;-78
2021/06/12 05:41:05;;;;;;;1.83;1.40;;;22.20;85.30;;;;;;5113255;28;20102;-79
2021/06/12 05:43:31;;;;;;;2.00;1.35;;;22.20;85.30;;;;;;5112110;28;20449;-76
2021/06/12 05:45:57;;;;;;;1.80;1.50;;;22.20;85.20;;;;;;5111522;28;20027;-79
2021/06/12 05:48:25;;;;;;;2.33;1.35;;;22.20;85.20;;;;;;5094655;27;20043;-79
2021/06/12 05:50:51;;;;;;;1.85;1.50;;;22.20;85.20;;;;;;5092324;28;20794;-78
2021/06/12 05:53:17;;;;;;;1.95;1.40;;;22.20;85.30;;;;;;5092294;28;20488;-79
2021/06/12 05:55:43;;;;;;;3.33;1.60;;;22.20;85.30;;;;;;5102259;28;20026;-79
2021/06/12 05:58:08;;;;;;;1.90;1.30;;;22.20;85.10;;;;;;5110783;28;20035;-79
2021/06/12 06:00:34;;;;;;;1.60;1.38;;;22.20;85.20;;;;;;5099721;28;20023;-79
2021/06/12 06:03:00;;;;;;;2.78;1.85;;;22.20;85.30;;;;;;5110876;28;20019;-79
2021/06/12 06:05:26;;;;;;;2.47;1.40;;;22.20;85.30;;;;;;5092648;28;20106;-78
2021/06/12 06:07:51;;;;;;;2.10;1.42;;;22.20;85.20;;;;;;5092978;28;20032;-79
2021/06/12 06:10:17;;;;;;;2.38;1.50;;;22.20;85.10;;;;;;5092117;28;20488;-83
2021/06/12 06:12:43;;;;;;;2.45;1.30;;;22.10;85.00;;;;;;5091305;28;20040;-80
2021/06/12 06:15:11;;;;;;;1.80;1.40;;;22.20;85.10;;;;;;5110694;28;20024;-82
2021/06/12 06:17:38;;;;;;;1.48;1.10;;;22.10;85.10;;;;;;5112384;28;20032;-78
2021/06/12 06:20:05;;;;;;;1.48;1.10;;;22.10;85.10;;;;;;5109232;28;20055;-84
2021/06/12 06:22:31;;;;;;;1.90;1.50;;;22.10;85.10;;;;;;5108739;28;20020;-81
2021/06/12 06:24:56;;;;;;;1.50;1.20;;;22.20;85.20;;;;;;5112609;28;20023;-77
2021/06/12 06:27:22;;;;;;;3.13;1.45;;;22.10;85.10;;;;;;5107196;28;20024;-76
2021/06/12 06:29:47;;;;;;;2.63;1.45;;;22.10;85.10;;;;;;5099967;28;20499;-79
2021/06/12 06:32:13;;;;;;;1.40;1.17;;;22.10;85.20;;;;;;5108199;28;20050;-79
2021/06/12 06:34:39;;;;;;;2.00;1.40;;;22.10;85.20;;;;;;5104567;28;20020;-79
2021/06/12 06:37:05;;;;;;;2.15;1.52;;;22.10;85.10;;;;;;5111402;28;20407;-79
2021/06/12 06:39:31;;;;;;;1.40;1.30;;;22.10;85.80;;;;;;5100800;28;20020;-75
2021/06/12 06:41:57;;;;;;;1.40;1.10;;;22.10;85.10;;;;;;5091951;28;20085;-80
2021/06/12 06:44:23;;;;;;;1.80;1.15;;;22.10;85.10;;;;;;5092588;28;20446;-80
2021/06/12 06:46:48;;;;;;;3.40;1.60;;;22.10;85.20;;;;;;5091670;28;20107;-81
2021/06/12 06:49:14;;;;;;;1.63;1.23;;;22.10;85.10;;;;;;5091631;28;20024;-84
2021/06/12 06:51:40;;;;;;;1.40;1.17;;;22.10;85.10;;;;;;5092255;28;20468;-82
2021/06/12 06:54:05;;;;;;;1.63;1.20;;;22.10;85.10;;;;;;5098042;28;20395;-82
2021/06/12 06:56:31;;;;;;;2.05;1.25;;;22.10;85.20;;;;;;5102082;28;20020;-79
2021/06/12 06:58:57;;;;;;;1.23;1.13;;;22.10;85.20;;;;;;5105557;28;20036;-86
2021/06/12 07:01:23;;;;;;;1.80;1.40;;;22.10;85.30;;;;;;5092138;28;20540;-81
2021/06/12 07:03:48;;;;;;;2.30;1.70;;;22.10;85.20;;;;;;5106351;28;20028;-83
2021/06/12 07:06:14;;;;;;;6.15;2.53;;;22.10;85.20;;;;;;5111574;28;20024;-80
2021/06/12 07:08:39;;;;;;;4.75;3.33;;;22.10;85.10;;;;;;5100186;28;20032;-79
2021/06/12 07:11:05;;;;;;;3.63;2.58;;;21.90;85.60;;;;;;5090935;28;20039;-81
2021/06/12 07:13:31;;;;;;;4.30;3.05;;;21.80;86.00;;;;;;5109525;28;20127;-75
2021/06/12 07:15:57;;;;;;;4.53;3.38;;;21.80;86.60;;;;;;5096958;28;20046;-77
2021/06/12 07:18:23;;;;;;;4.97;3.65;;;21.70;86.80;;;;;;5108739;28;20515;-76
2021/06/12 07:20:49;;;;;;;5.00;4.13;;;21.70;87.20;;;;;;5110812;28;20395;-76
2021/06/12 07:23:15;;;;;;;5.43;4.15;;;21.60;87.90;;;;;;5109159;28;20030;-79
2021/06/12 07:25:42;;;;;;;7.20;3.95;;;21.50;88.40;;;;;;5103174;28;20495;-77
2021/06/12 07:28:08;;;;;;;4.90;4.22;;;21.50;88.80;;;;;;5110718;28;20027;-77
2021/06/12 07:30:39;;;;;;;6.00;4.20;;;21.40;89.10;;;;;;5105381;28;20057;-77
2021/06/12 07:33:09;;;;;;;5.63;4.68;;;21.40;89.10;;;;;;5091275;28;20399;-78
2021/06/12 07:35:35;;;;;;;10.68;6.30;;;21.50;89.30;;;;;;5097756;28;20024;-77
2021/06/12 07:38:01;;;;;;;7.47;6.05;;;21.40;89.80;;;;;;5089841;28;20032;-75
2021/06/12 07:40:27;;;;;;;9.02;5.38;;;21.50;89.90;;;;;;5090729;28;20077;-77
2021/06/12 07:42:53;;;;;;;6.93;5.30;;;21.40;90.00;;;;;;5089497;28;20020;-78
2021/06/12 07:45:18;;;;;;;8.52;5.03;;;21.50;90.00;;;;;;5089337;28;20020;-77
2021/06/12 07:47:44;;;;;;;7.30;4.88;;;21.50;89.90;;;;;;5092196;28;20028;-75
2021/06/12 07:50:10;;;;;;;7.30;4.72;;;21.50;89.90;;;;;;5089970;28;20024;-77
2021/06/12 07:52:35;;;;;;;6.53;4.63;;;21.60;89.80;;;;;;5095995;28;20110;-75
2021/06/12 07:55:01;;;;;;;9.45;4.18;;;21.60;89.60;;;;;;5092665;28;20391;-76
2021/06/12 07:57:27;;;;;;;7.82;4.70;;;21.70;89.50;;;;;;5089257;28;20024;-78
2021/06/12 07:59:52;;;;;;;7.40;4.70;;;21.70;89.60;;;;;;5089947;28;20039;-75
2021/06/12 08:02:18;;;;;;;6.82;4.75;;;21.60;90.00;;;;;;5089869;28;20450;-77
2021/06/12 08:04:44;;;;;;;7.68;4.88;;;21.60;90.30;;;;;;5090612;28;20028;-76
2021/06/12 08:07:10;;;;;;;8.48;4.20;;;21.60;90.20;;;;;;5090793;28;20569;-76
2021/06/12 08:09:35;;;;;;;5.93;4.22;;;21.60;90.20;;;;;;5090422;28;20028;-75
2021/06/12 08:12:02;;;;;;;7.15;5.00;;;21.60;90.20;;;;;;5094907;28;20096;-74
2021/06/12 08:14:27;;;;;;;8.68;4.35;;;21.60;90.20;;;;;;5090608;28;20020;-76
2021/06/12 08:16:53;;;;;;;7.18;3.88;;;21.60;90.40;;;;;;5090038;28;20032;-75
2021/06/12 08:19:19;;;;;;;6.50;4.50;;;21.60;90.50;;;;;;5092949;28;20055;-73
2021/06/12 08:21:44;;;;;;;6.05;4.70;;;21.70;90.50;;;;;;5093585;28;20028;-73
2021/06/12 08:24:11;;;;;;;6.25;3.95;;;21.70;90.50;;;;;;5093671;28;20433;-74
2021/06/12 08:26:36;;;;;;;6.90;3.20;;;21.80;90.20;;;;;;5093491;28;20028;-73
2021/06/12 08:29:02;;;;;;;4.85;3.13;;;21.90;89.80;;;;;;5103824;28;20083;-74
2021/06/12 08:31:28;;;;;;;5.68;3.42;;;22.10;89.00;;;;;;5114780;28;20032;-77
2021/06/12 08:33:53;;;;;;;4.03;2.75;;;22.10;88.50;;;;;;5113339;28;20028;-76
2021/06/12 08:36:19;;;;;;;4.07;2.70;;;22.20;88.10;;;;;;5114389;28;20023;-75
2021/06/12 08:38:45;;;;;;;6.95;3.08;;;22.30;87.80;;;;;;5111612;28;20035;-76
2021/06/12 08:41:10;;;;;;;6.47;3.22;;;22.30;87.20;;;;;;5114171;27;20052;-76
2021/06/12 08:43:37;;;;;;;7.15;2.70;;;22.30;87.00;;;;;;5113981;28;20028;-77
2021/06/12 08:46:03;;;;;;;3.72;2.53;;;22.40;86.80;;;;;;5114312;28;20012;-79
2021/06/12 08:48:30;;;;;;;3.30;2.38;;;22.40;86.80;;;;;;5114523;28;20035;-78
2021/06/12 08:50:56;;;;;;;6.03;2.25;;;22.40;86.50;;;;;;5110299;28;20513;-78
2021/06/12 08:53:22;;;;;;;3.65;2.58;;;22.40;86.20;;;;;;5101939;28;20089;-77
2021/06/12 08:55:48;;;;;;;3.72;2.50;;;22.40;86.10;;;;;;5092094;28;20024;-77
2021/06/12 08:58:14;;;;;;;5.30;2.80;;;22.40;85.80;;;;;;5097258;28;20034;-77
2021/06/12 09:00:41;;;;;;;6.45;3.08;;;22.50;85.70;;;;;;5104949;28;20495;-75
2021/06/12 09:03:08;;;;;;;3.75;2.65;;;22.50;85.50;;;;;;5112904;28;20027;-75
2021/06/12 09:05:45;;;;;;;4.38;2.30;;;22.50;85.40;;;;;;5113625;28;20372;-76
2021/06/12 09:08:12;;;;;;;4.47;2.30;;;22.50;85.30;;;;;;5094113;28;20028;-77
2021/06/12 09:10:52;;;;;;;4.47;2.33;;;22.50;85.20;;;;;;5092836;28;20492;-75
2021/06/12 09:13:33;;;;;;;5.90;2.20;;;22.50;85.30;;;;;;5093041;28;20036;-78
2021/06/12 09:16:01;;;;;;;5.00;2.30;;;22.50;85.30;;;;;;5093579;28;20020;-77
2021/06/12 09:18:41;;;;;;;4.65;2.25;;;22.60;85.30;;;;;;5093352;28;20332;-76
2021/06/12 09:21:21;;;;;;;3.00;2.10;;;22.60;85.20;;;;;;5093306;28;20032;-77
2021/06/12 09:23:47;;;;;;;4.65;2.33;;;22.70;85.00;;;;;;5092934;28;20510;-78
2021/06/12 09:26:13;;;;;;;4.72;2.90;;;22.70;84.60;;;;;;5093131;28;20032;-77
2021/06/12 09:28:54;;;;;;;3.38;2.30;;;22.70;84.40;;;;;;5092833;28;20019;-77
2021/06/12 09:31:24;;;;;;;5.20;2.70;;;22.70;84.10;;;;;;5092801;28;20369;-77
2021/06/12 09:33:50;;;;;;;4.18;2.65;;;22.80;84.00;;;;;;5092065;28;20407;-77
2021/06/12 09:36:16;;;;;;;4.60;2.72;;;22.80;83.90;;;;;;5094498;28;20024;-77
2021/06/12 09:38:42;;;;;;;4.88;2.67;;;22.80;83.70;;;;;;5113071;28;20019;-77
2021/06/12 09:41:28;;;;;;;3.13;2.72;;;22.80;83.70;;;;;;5113299;28;20020;-76
2021/06/12 09:43:55;;;;;;;3.97;2.47;;;22.80;83.60;;;;;;5111556;28;20019;-77
2021/06/12 09:46:36;;;;;;;5.03;2.92;;;22.80;83.40;;;;;;5113133;28;20787;-77
2021/06/12 09:49:04;;;;;;;5.45;2.97;;;22.90;83.30;;;;;;5110789;28;20031;-77
2021/06/12 09:51:30;;;;;;;3.53;2.78;;;22.80;83.20;;;;;;5113168;28;20039;-78
2021/06/12 09:53:58;;;;;;;3.92;2.83;;;22.90;83.10;;;;;;5113175;28;20069;-78
2021/06/12 09:56:25;;;;;;;4.05;2.42;;;22.90;83.00;;;;;;5112989;28;20101;-77
2021/06/12 09:58:52;;;;;;;3.47;2.70;;;22.90;83.00;;;;;;5100860;28;20446;-76
2021/06/12 10:01:20;;;;;;;3.67;2.70;;;22.90;82.90;;;;;;5092383;28;20020;-77
2021/06/12 10:03:47;;;;;;;3.97;2.80;;;23.00;82.70;;;;;;5092267;28;20434;-76
2021/06/12 10:06:16;;;;;;;4.13;2.90;;;23.00;82.60;;;;;;5092267;28;20024;-77
2021/06/12 10:08:45;;;;;;;4.32;3.05;;;23.10;82.30;;;;;;5092007;28;20027;-75
2021/06/12 10:11:25;;;;;;;3.53;2.47;;;23.10;82.10;;;;;;5091899;28;20047;-77
2021/06/12 10:13:51;;;;;;;3.63;2.78;;;23.20;82.10;;;;;;5091962;28;20475;-77
2021/06/12 10:16:17;;;;;;;4.75;3.08;;;23.20;82.10;;;;;;5092168;28;20070;-76
2021/06/12 10:18:44;;;;;;;5.03;2.90;;;23.20;82.10;;;;;;5091766;28;20469;-76
2021/06/12 10:21:14;;;;;;;4.20;3.00;;;23.20;82.00;;;;;;5092004;28;20031;-77
2021/06/12 10:23:42;;;;;;;3.47;2.63;;;23.20;81.90;;;;;;5091816;28;20099;-77
2021/06/12 10:26:09;;;;;;;3.63;2.95;;;23.20;82.00;;;;;;5090750;28;20024;-75
2021/06/12 10:28:36;;;;;;;5.47;2.90;;;23.10;82.00;;;;;;5095581;28;20027;-77
2021/06/12 10:31:08;;;;;;;3.42;2.70;;;23.20;82.10;;;;;;5091388;28;20035;-76
2021/06/12 10:33:35;;;;;;;3.90;2.95;;;23.20;82.00;;;;;;5092626;28;20059;-77
2021/06/12 10:36:25;;;;;;;4.47;3.38;;;23.20;81.80;;;;;;5091868;28;20021;-75
2021/06/12 10:38:52;;;;;;;4.15;2.65;;;23.20;81.70;;;;;;5091450;28;20522;-77
2021/06/12 10:41:21;;;;;;;4.13;2.45;;;23.30;81.50;;;;;;5091330;28;20046;-76
2021/06/12 10:43:48;;;;;;;5.43;2.70;;;23.30;81.20;;;;;;5091257;28;20535;-77
2021/06/12 10:46:19;;;;;;;3.38;2.67;;;23.30;81.20;;;;;;5090212;28;20557;-76
2021/06/12 10:48:54;;;;;;;3.97;2.70;;;23.30;81.30;;;;;;5091189;28;20494;-77
2021/06/12 10:51:26;;;;;;;3.65;2.83;;;23.20;81.30;;;;;;5090493;28;20373;-76
2021/06/12 10:54:26;;;;;;;3.65;2.55;;;23.30;81.30;;;;;;5091244;28;20085;-77
2021/06/12 10:57:16;;;;;;;3.72;2.78;;;23.30;81.20;;;;;;5070788;28;20374;-77
2021/06/12 10:59:52;;;;;;;5.20;3.10;;;23.30;81.20;;;;;;5081904;28;20123;-76
2021/06/12 11:02:29;;;;;;;3.33;2.72;;;23.30;81.10;;;;;;5111920;28;20027;-77
2021/06/12 11:05:10;;;;;;;3.42;2.83;;;23.30;81.00;;;;;;5111443;28;20051;-77
2021/06/12 11:07:38;;;;;;;4.50;2.83;;;23.40;80.80;;;;;;5111418;28;20081;-77
2021/06/12 11:10:09;;;;;;;4.05;2.85;;;23.40;80.60;;;;;;5111668;28;20028;-75
2021/06/12 11:12:37;;;;;;;3.63;3.20;;;23.50;80.30;;;;;;5111196;28;20070;-76
2021/06/12 11:15:28;;;;;;;4.20;3.03;;;23.50;80.20;;;;;;5111455;28;20440;-77
2021/06/12 11:18:13;;;;;;;4.15;2.78;;;23.50;80.20;;;;;;5105731;28;20491;-76
2021/06/12 11:20:42;;;;;;;2.95;2.47;;;23.50;80.10;;;;;;5111407;28;20067;-77
2021/06/12 11:23:09;;;;;;;5.78;2.72;;;23.40;80.10;;;;;;5110518;28;20403;-78
2021/06/12 11:25:37;;;;;;;3.40;2.60;;;23.40;80.20;;;;;;5111412;28;20035;-78
2021/06/12 11:28:33;;;;;;;3.38;2.83;;;23.40;80.20;;;;;;5107182;28;20032;-74
2021/06/12 11:31:38;;;;;;;3.20;2.90;;;23.40;80.30;;;;;;5085843;28;20086;-78
2021/06/12 11:34:12;;;;;;;3.72;2.58;;;23.40;80.40;;;;;;5061109;28;20032;-75
2021/06/12 11:36:38;;;;;;;8.55;3.33;;;23.40;80.40;;;;;;5048984;28;20024;-76
2021/06/12 11:39:04;;;;;;;4.28;2.67;;;23.40;80.50;;;;;;5090933;28;20055;-75
2021/06/12 11:41:29;;;;;;;3.55;3.20;;;23.40;80.60;;;;;;5094431;28;20028;-77
2021/06/12 11:43:56;;;;;;;6.90;3.78;;;23.40;80.80;;;;;;5090739;28;20110;-77
2021/06/12 11:46:24;;;;;;;6.22;4.10;;;23.40;80.70;;;;;;5090927;28;20020;-76
2021/06/12 11:48:52;;;;;;;4.10;3.40;;;23.40;80.80;;;;;;5090666;28;20024;-75
2021/06/12 11:51:31;;;;;;;5.40;4.18;;;23.30;80.80;;;;;;5095070;28;20028;-77
2021/06/12 11:54:03;;;;;;;6.30;3.92;;;23.40;81.00;;;;;;5092614;28;20024;-78
2021/06/12 11:56:36;;;;;;;5.72;4.43;;;23.50;80.80;;;;;;5108392;28;20023;-76
2021/06/12 11:59:03;;;;;;;5.47;3.63;;;23.50;81.10;;;;;;5106250;28;20038;-77
2021/06/12 12:01:59;;;;;;;6.47;3.63;;;23.50;80.30;;;;;;5111802;28;20024;-76
2021/06/12 12:04:35;;;;;;;6.10;3.35;;;23.50;80.30;;;;;;5115175;28;20405;-76
2021/06/12 12:07:03;;;;;;;13.25;4.35;;;23.60;80.40;;;;;;5115140;28;20027;-73
2021/06/12 12:09:31;;;;;;;9.70;3.70;;;23.60;80.60;;;;;;5114806;28;20510;-74
2021/06/12 12:12:00;;;;;;;7.22;3.90;;;23.70;80.60;;;;;;5074205;28;20041;-74
2021/06/12 12:14:47;;;;;;;8.60;4.45;;;23.70;80.60;;;;;;5073171;28;20020;-73
2021/06/12 12:17:27;;;;;;;10.07;3.55;;;23.80;80.50;;;;;;5074140;28;20119;-74
2021/06/12 12:20:03;;;;;;;5.43;3.40;;;23.70;80.40;;;;;;5073906;28;20024;-77
2021/06/12 12:22:35;;;;;;;;;;;23.80;80.50;;;;;;5113794;28;20032;-75
2021/06/12 12:25:02;;;;;;;3.63;2.65;;;23.70;80.30;;;;;;5114857;28;19904;-76
2021/06/12 12:27:27;;;;;;;8.13;4.40;;;23.80;80.20;;;;;;5086580;28;20513;-76
2021/06/12 12:29:53;;;;;;;6.88;3.25;;;23.80;80.20;;;;;;5092713;28;20107;-76
2021/06/12 12:32:22;;;;;;;6.40;3.42;;;23.80;80.40;;;;;;5091486;28;20032;-80
2021/06/12 12:34:48;;;;;;;7.78;3.20;;;23.80;80.40;;;;;;5086674;28;20032;-78
2021/06/12 12:37:22;;;;;;;8.45;4.07;;;23.70;80.60;;;;;;5089088;28;20035;-75
2021/06/12 12:39:49;;;;;;;7.28;3.30;;;23.80;80.80;;;;;;5090985;28;20057;-78
2021/06/12 12:42:17;;;;;;;3.85;3.13;;;23.80;81.10;;;;;;5088331;28;20127;-75
2021/06/12 12:44:45;;;;;;;6.53;3.78;;;23.80;81.40;;;;;;5088586;28;20492;-76
2021/06/12 12:47:13;;;;;;;7.40;3.47;;;23.70;81.50;;;;;;5092817;28;20027;-78
2021/06/12 12:49:40;;;;;;;4.90;3.45;;;23.80;81.70;;;;;;5091757;28;20017;-79
2021/06/12 12:52:21;;;;;;;5.03;3.30;;;23.90;81.70;;;;;;5091943;28;20032;-77
2021/06/12 12:55:10;;;;;;;6.45;3.65;;;24.00;81.50;;;;;;5091056;28;20020;-79